www.cux-wetter.de
Wetterdaten: Dienstag, 15.03.2011
Datum Zeit Temp. A. Feuchte A. Luftdruck Regen Wind Richtung Richtung Sonnenschein Solar Taupunkt Windchill Windben
15.03.2011 00:04 8,3 C 93 % 1019,5 hPa 0,0 l/m 10,0 km/h (2 Bft) O 85 0 min 0 W/m 7,2 C 5,7 C 10,0 km/h (2 Bft)
15.03.2011 00:09 8,3 C 93 % 1019,5 hPa 0,0 l/m 10,1 km/h (2 Bft) O 95 0 min 0 W/m 7,2 C 5,7 C 10,1 km/h (2 Bft)
15.03.2011 00:14 8,2 C 93 % 1019,5 hPa 0,0 l/m 12,0 km/h (2 Bft) O-SO 105 0 min 0 W/m 7,1 C 4,4 C 12,0 km/h (2 Bft)
15.03.2011 00:19 8,2 C 93 % 1019,5 hPa 0,0 l/m 9,2 km/h (2 Bft) O 95 0 min 0 W/m 7,1 C 6,1 C 9,2 km/h (2 Bft)
15.03.2011 00:25 8,2 C 93 % 1019,5 hPa 0,0 l/m 8,4 km/h (2 Bft) O 95 0 min 0 W/m 7,1 C 6,7 C 8,4 km/h (2 Bft)
15.03.2011 00:29 8,2 C 93 % 1019,5 hPa 0,0 l/m 5,9 km/h (2 Bft) O 95 0 min 0 W/m 7,1 C 8,2 C 5,9 km/h (2 Bft)
15.03.2011 00:34 8,2 C 93 % 1019,5 hPa 0,0 l/m 12,5 km/h (2 Bft) O-SO 105 0 min 0 W/m 7,1 C 4,2 C 12,5 km/h (2 Bft)
15.03.2011 00:39 8,1 C 93 % 1019,5 hPa 0,0 l/m 12,3 km/h (2 Bft) O 95 0 min 0 W/m 7,0 C 4,2 C 12,3 km/h (2 Bft)
15.03.2011 00:44 8,1 C 93 % 1019,5 hPa 0,0 l/m 13,6 km/h (3 Bft) O-NO 70 0 min 0 W/m 7,0 C 3,5 C 13,6 km/h (3 Bft)
15.03.2011 00:49 8,1 C 93 % 1019,5 hPa 0,0 l/m 6,5 km/h (2 Bft) O 85 0 min 0 W/m 7,0 C 8,0 C 6,5 km/h (2 Bft)
15.03.2011 00:54 8,1 C 93 % 1019,5 hPa 0,0 l/m 10,0 km/h (2 Bft) O 85 0 min 0 W/m 7,0 C 5,5 C 10,0 km/h (2 Bft)
15.03.2011 00:59 8,1 C 93 % 1019,5 hPa 0,0 l/m 10,8 km/h (2 Bft) O 85 0 min 0 W/m 7,0 C 5,0 C 10,8 km/h (2 Bft)
15.03.2011 01:04 8,1 C 93 % 1019,5 hPa 0,0 l/m 2,9 km/h (1 Bft) O 85 0 min 0 W/m 7,0 C 8,1 C 2,9 km/h (1 Bft)
15.03.2011 01:09 8,1 C 93 % 1019,5 hPa 0,0 l/m 8,7 km/h (2 Bft) O 85 0 min 0 W/m 7,0 C 6,4 C 8,7 km/h (2 Bft)
15.03.2011 01:14 8,1 C 93 % 1019,5 hPa 0,0 l/m 8,2 km/h (2 Bft) O-NO 75 0 min 0 W/m 7,0 C 6,7 C 8,2 km/h (2 Bft)
15.03.2011 01:19 8,1 C 93 % 1019,5 hPa 0,0 l/m 9,6 km/h (2 Bft) O 90 0 min 0 W/m 7,0 C 5,8 C 9,6 km/h (2 Bft)
15.03.2011 01:24 8,1 C 93 % 1019,5 hPa 0,0 l/m 7,4 km/h (2 Bft) O 90 0 min 0 W/m 7,0 C 7,3 C 7,4 km/h (2 Bft)
15.03.2011 01:29 8,1 C 93 % 1019,5 hPa 0,0 l/m 13,8 km/h (3 Bft) O-NO 75 0 min 0 W/m 7,0 C 3,4 C 13,8 km/h (3 Bft)
15.03.2011 01:34 8,1 C 93 % 1019,5 hPa 0,0 l/m 9,2 km/h (2 Bft) O-NO 60 0 min 0 W/m 7,0 C 6,0 C 9,2 km/h (2 Bft)
15.03.2011 01:39 8,0 C 93 % 1019,5 hPa 0,0 l/m 5,2 km/h (1 Bft) O 90 0 min 0 W/m 6,9 C 8,0 C 5,2 km/h (1 Bft)
15.03.2011 01:44 8,0 C 93 % 1019,5 hPa 0,0 l/m 10,9 km/h (2 Bft) O-NO 75 0 min 0 W/m 6,9 C 4,8 C 10,9 km/h (2 Bft)
15.03.2011 01:49 8,0 C 93 % 1019,5 hPa 0,0 l/m 9,2 km/h (2 Bft) O-NO 75 0 min 0 W/m 6,9 C 5,9 C 9,2 km/h (2 Bft)
15.03.2011 01:54 7,9 C 93 % 1019,5 hPa 0,0 l/m 3,3 km/h (1 Bft) O 90 0 min 0 W/m 6,8 C 7,9 C 3,3 km/h (1 Bft)
15.03.2011 01:59 7,9 C 93 % 1019,5 hPa 0,0 l/m 8,0 km/h (2 Bft) O 95 0 min 0 W/m 6,8 C 6,6 C 8,0 km/h (2 Bft)
15.03.2011 02:04 7,9 C 93 % 1019,5 hPa 0,0 l/m 8,5 km/h (2 Bft) O-NO 75 0 min 0 W/m 6,8 C 6,3 C 8,5 km/h (2 Bft)
15.03.2011 02:09 7,9 C 93 % 1019,5 hPa 0,0 l/m 9,8 km/h (2 Bft) O 85 0 min 0 W/m 6,8 C 5,4 C 9,8 km/h (2 Bft)
15.03.2011 02:15 7,9 C 93 % 1019,5 hPa 0,0 l/m 6,4 km/h (2 Bft) O-NO 75 0 min 0 W/m 6,8 C 7,9 C 6,4 km/h (2 Bft)
15.03.2011 02:19 7,9 C 93 % 1019,5 hPa 0,0 l/m 2,9 km/h (1 Bft) O-NO 60 0 min 0 W/m 6,8 C 7,9 C 2,9 km/h (1 Bft)
15.03.2011 02:24 7,9 C 93 % 1019,5 hPa 0,0 l/m 9,4 km/h (2 Bft) O 85 0 min 0 W/m 6,8 C 5,7 C 9,4 km/h (2 Bft)
15.03.2011 02:29 7,8 C 93 % 1019,5 hPa 0,0 l/m 8,3 km/h (2 Bft) O 90 0 min 0 W/m 6,7 C 6,3 C 8,3 km/h (2 Bft)
15.03.2011 02:34 7,8 C 93 % 1019,5 hPa 0,0 l/m 11,6 km/h (2 Bft) O 100 0 min 0 W/m 6,7 C 4,2 C 11,6 km/h (2 Bft)
15.03.2011 02:39 7,8 C 93 % 1019,5 hPa 0,0 l/m 10,1 km/h (2 Bft) NO 55 0 min 0 W/m 6,7 C 5,1 C 10,1 km/h (2 Bft)
15.03.2011 02:44 7,8 C 93 % 1019,5 hPa 0,0 l/m 11,3 km/h (2 Bft) O 85 0 min 0 W/m 6,7 C 4,4 C 11,3 km/h (2 Bft)
15.03.2011 02:49 7,7 C 93 % 1020,5 hPa 0,0 l/m 12,9 km/h (3 Bft) O 80 0 min 0 W/m 6,6 C 3,4 C 12,9 km/h (3 Bft)
15.03.2011 02:54 7,8 C 93 % 1020,5 hPa 0,0 l/m 15,0 km/h (3 Bft) O-SO 105 0 min 0 W/m 6,7 C 2,5 C 15,0 km/h (3 Bft)
15.03.2011 03:00 7,8 C 93 % 1020,5 hPa 0,0 l/m 16,0 km/h (3 Bft) O 85 0 min 0 W/m 6,7 C 2,0 C 16,0 km/h (3 Bft)
15.03.2011 03:04 7,8 C 93 % 1020,5 hPa 0,0 l/m 17,5 km/h (3 Bft) O-SO 110 0 min 0 W/m 6,7 C 1,4 C 17,5 km/h (3 Bft)
15.03.2011 03:09 7,8 C 93 % 1020,5 hPa 0,0 l/m 12,8 km/h (3 Bft) O 90 0 min 0 W/m 6,7 C 3,6 C 12,8 km/h (3 Bft)
15.03.2011 03:14 7,8 C 93 % 1020,5 hPa 0,0 l/m 11,5 km/h (2 Bft) O 90 0 min 0 W/m 6,7 C 4,3 C 11,5 km/h (2 Bft)
15.03.2011 03:19 7,8 C 93 % 1020,5 hPa 0,0 l/m 15,6 km/h (3 Bft) O 90 0 min 0 W/m 6,7 C 2,2 C 15,6 km/h (3 Bft)
15.03.2011 03:24 7,8 C 93 % 1020,5 hPa 0,0 l/m 13,9 km/h (3 Bft) O 95 0 min 0 W/m 6,7 C 3,0 C 13,9 km/h (3 Bft)
15.03.2011 03:30 7,7 C 93 % 1020,5 hPa 0,0 l/m 6,9 km/h (2 Bft) O-NO 65 0 min 0 W/m 6,6 C 7,3 C 6,9 km/h (2 Bft)
15.03.2011 03:34 7,6 C 92 % 1020,5 hPa 0,0 l/m 10,2 km/h (2 Bft) O 100 0 min 0 W/m 6,4 C 4,8 C 10,2 km/h (2 Bft)
15.03.2011 03:39 7,6 C 92 % 1020,5 hPa 0,0 l/m 12,6 km/h (3 Bft) O-NO 70 0 min 0 W/m 6,4 C 3,4 C 12,6 km/h (3 Bft)
15.03.2011 03:44 7,6 C 92 % 1020,5 hPa 0,0 l/m 7,8 km/h (2 Bft) O 95 0 min 0 W/m 6,4 C 6,5 C 7,8 km/h (2 Bft)
15.03.2011 03:49 7,6 C 92 % 1020,5 hPa 0,0 l/m 6,7 km/h (2 Bft) O-SO 115 0 min 0 W/m 6,4 C 7,4 C 6,7 km/h (2 Bft)
15.03.2011 03:54 7,6 C 92 % 1020,5 hPa 0,0 l/m 7,9 km/h (2 Bft) O-NO 75 0 min 0 W/m 6,4 C 6,4 C 7,9 km/h (2 Bft)
15.03.2011 03:59 7,6 C 92 % 1020,5 hPa 0,0 l/m 10,6 km/h (2 Bft) O 95 0 min 0 W/m 6,4 C 4,6 C 10,6 km/h (2 Bft)
15.03.2011 04:04 7,6 C 92 % 1020,5 hPa 0,0 l/m 10,2 km/h (2 Bft) O-NO 75 0 min 0 W/m 6,4 C 4,8 C 10,2 km/h (2 Bft)
15.03.2011 04:09 7,6 C 92 % 1020,5 hPa 0,0 l/m 6,8 km/h (2 Bft) O-NO 70 0 min 0 W/m 6,4 C 7,3 C 6,8 km/h (2 Bft)
15.03.2011 04:14 7,6 C 92 % 1020,5 hPa 0,0 l/m 7,4 km/h (2 Bft) O-SO 115 0 min 0 W/m 6,4 C 6,8 C 7,4 km/h (2 Bft)
15.03.2011 04:19 7,6 C 92 % 1020,5 hPa 0,0 l/m 10,6 km/h (2 Bft) O-SO 105 0 min 0 W/m 6,4 C 4,6 C 10,6 km/h (2 Bft)
15.03.2011 04:24 7,6 C 92 % 1020,5 hPa 0,0 l/m 15,7 km/h (3 Bft) O-SO 105 0 min 0 W/m 6,4 C 1,9 C 15,7 km/h (3 Bft)
15.03.2011 04:29 7,6 C 92 % 1020,5 hPa 0,0 l/m 8,6 km/h (2 Bft) O-SO 105 0 min 0 W/m 6,4 C 5,9 C 8,6 km/h (2 Bft)
15.03.2011 04:34 7,6 C 92 % 1020,5 hPa 0,0 l/m 1,0 km/h (0 Bft) O-NO 70 0 min 0 W/m 6,4 C 7,6 C 1,0 km/h (0 Bft)
15.03.2011 04:39 7,6 C 92 % 1020,5 hPa 0,0 l/m 9,3 km/h (2 Bft) O 95 0 min 0 W/m 6,4 C 5,4 C 9,3 km/h (2 Bft)
15.03.2011 04:45 7,6 C 92 % 1020,5 hPa 0,0 l/m 5,6 km/h (2 Bft) NO 50 0 min 0 W/m 6,4 C 7,6 C 5,6 km/h (2 Bft)
15.03.2011 04:49 7,6 C 92 % 1020,5 hPa 0,0 l/m 13,0 km/h (3 Bft) O 95 0 min 0 W/m 6,4 C 3,2 C 13,0 km/h (3 Bft)
15.03.2011 04:54 7,5 C 92 % 1020,5 hPa 0,0 l/m 11,2 km/h (2 Bft) O 95 0 min 0 W/m 6,3 C 4,1 C 11,2 km/h (2 Bft)
15.03.2011 04:59 7,4 C 92 % 1020,5 hPa 0,0 l/m 11,0 km/h (2 Bft) O-NO 75 0 min 0 W/m 6,2 C 4,1 C 11,0 km/h (2 Bft)
15.03.2011 05:04 7,4 C 92 % 1020,5 hPa 0,0 l/m 12,6 km/h (3 Bft) O-SO 105 0 min 0 W/m 6,2 C 3,2 C 12,6 km/h (3 Bft)
15.03.2011 05:09 7,4 C 92 % 1020,5 hPa 0,0 l/m 15,5 km/h (3 Bft) SO 125 0 min 0 W/m 6,2 C 1,8 C 15,5 km/h (3 Bft)
15.03.2011 05:14 7,4 C 92 % 1020,5 hPa 0,0 l/m 12,8 km/h (3 Bft) O-SO 120 0 min 0 W/m 6,2 C 3,1 C 12,8 km/h (3 Bft)
15.03.2011 05:19 7,4 C 92 % 1020,5 hPa 0,0 l/m 18,0 km/h (3 Bft) O-SO 110 0 min 0 W/m 6,2 C 0,7 C 18,0 km/h (3 Bft)
15.03.2011 05:24 7,4 C 92 % 1020,5 hPa 0,0 l/m 15,7 km/h (3 Bft) SO 125 0 min 0 W/m 6,2 C 1,7 C 15,7 km/h (3 Bft)
15.03.2011 05:29 7,4 C 92 % 1020,5 hPa 0,0 l/m 13,2 km/h (3 Bft) O-SO 105 0 min 0 W/m 6,2 C 2,9 C 13,2 km/h (3 Bft)
15.03.2011 05:34 7,4 C 92 % 1020,5 hPa 0,0 l/m 16,4 km/h (3 Bft) SO 130 0 min 0 W/m 6,2 C 1,4 C 16,4 km/h (3 Bft)
15.03.2011 05:39 7,4 C 92 % 1020,5 hPa 0,0 l/m 13,0 km/h (3 Bft) O 100 0 min 0 W/m 6,2 C 3,0 C 13,0 km/h (3 Bft)
15.03.2011 05:44 7,3 C 92 % 1020,5 hPa 0,0 l/m 14,0 km/h (3 Bft) O 85 0 min 0 W/m 6,1 C 2,3 C 14,0 km/h (3 Bft)
15.03.2011 05:50 7,2 C 91 % 1020,5 hPa 0,0 l/m 13,0 km/h (3 Bft) O 100 0 min 0 W/m 5,8 C 2,7 C 13,0 km/h (3 Bft)
15.03.2011 05:54 7,2 C 91 % 1020,5 hPa 0,0 l/m 16,3 km/h (3 Bft) O 85 0 min 0 W/m 5,8 C 1,2 C 16,3 km/h (3 Bft)
15.03.2011 05:59 7,2 C 91 % 1020,5 hPa 0,0 l/m 10,6 km/h (2 Bft) O-SO 115 0 min 0 W/m 5,8 C 4,1 C 10,6 km/h (2 Bft)
15.03.2011 06:04 7,1 C 91 % 1020,5 hPa 0,0 l/m 13,1 km/h (3 Bft) O-SO 105 0 min 0 W/m 5,7 C 2,6 C 13,1 km/h (3 Bft)
15.03.2011 06:09 7,1 C 91 % 1020,5 hPa 0,0 l/m 11,9 km/h (2 Bft) O 100 0 min 0 W/m 5,7 C 3,2 C 11,9 km/h (2 Bft)
15.03.2011 06:14 7,0 C 91 % 1020,5 hPa 0,0 l/m 18,0 km/h (3 Bft) SO 125 0 min 0 W/m 5,6 C 0,2 C 18,0 km/h (3 Bft)
15.03.2011 06:20 7,0 C 91 % 1020,5 hPa 0,0 l/m 3,3 km/h (1 Bft) O 80 0 min 0 W/m 5,6 C 7,0 C 3,3 km/h (1 Bft)
15.03.2011 06:24 7,0 C 90 % 1020,5 hPa 0,0 l/m 9,0 km/h (2 Bft) SO 130 0 min 0 W/m 5,5 C 5,0 C 9,0 km/h (2 Bft)
15.03.2011 06:29 6,9 C 90 % 1020,5 hPa 0,0 l/m 10,6 km/h (2 Bft) O-NO 75 0 min 0 W/m 5,4 C 3,8 C 10,6 km/h (2 Bft)
15.03.2011 06:34 6,8 C 90 % 1020,5 hPa 0,0 l/m 20,5 km/h (4 Bft) O 90 0 min 0 W/m 5,3 C -1,0 C 20,5 km/h (4 Bft)
15.03.2011 06:39 6,7 C 90 % 1020,5 hPa 0,0 l/m 16,5 km/h (3 Bft) O-SO 105 0 min 0 W/m 5,2 C 0,4 C 16,5 km/h (3 Bft)
15.03.2011 06:44 6,6 C 90 % 1020,5 hPa 0,0 l/m 8,9 km/h (2 Bft) O 80 0 min 0 W/m 5,1 C 4,6 C 8,9 km/h (2 Bft)
15.03.2011 06:49 6,5 C 90 % 1020,5 hPa 0,0 l/m 11,6 km/h (2 Bft) O-NO 65 0 min 0 W/m 5,0 C 2,7 C 11,6 km/h (2 Bft)
15.03.2011 06:54 6,4 C 90 % 1020,5 hPa 0,0 l/m 16,3 km/h (3 Bft) O 95 0 min 0 W/m 4,9 C 0,2 C 16,3 km/h (3 Bft)
15.03.2011 07:00 6,3 C 90 % 1020,5 hPa 0,0 l/m 16,8 km/h (3 Bft) O 90 0 min 0 W/m 4,8 C -0,2 C 16,8 km/h (3 Bft)
15.03.2011 07:04 6,2 C 90 % 1020,5 hPa 0,0 l/m 15,2 km/h (3 Bft) O 85 0 min 0 W/m 4,7 C 0,4 C 15,2 km/h (3 Bft)
15.03.2011 07:09 6,0 C 90 % 1020,5 hPa 0,0 l/m 19,0 km/h (3 Bft) O 80 0 min 0 W/m 4,5 C -1,5 C 19,0 km/h (3 Bft)
15.03.2011 07:14 6,0 C 90 % 1020,5 hPa 0,0 l/m 5,2 km/h (1 Bft) O-NO 65 0 min 0 W/m 4,5 C 6,0 C 5,2 km/h (1 Bft)
15.03.2011 07:19 6,0 C 90 % 1020,5 hPa 0,0 l/m 17,6 km/h (3 Bft) O-NO 65 0 min 0 W/m 4,5 C -0,9 C 17,6 km/h (3 Bft)
15.03.2011 07:25 6,0 C 90 % 1020,5 hPa 0,0 l/m 14,8 km/h (3 Bft) O 80 0 min 0 W/m 4,5 C 0,4 C 14,8 km/h (3 Bft)
15.03.2011 07:29 6,0 C 90 % 1020,5 hPa 0,0 l/m 12,9 km/h (3 Bft) O-NO 70 0 min 0 W/m 4,5 C 1,4 C 12,9 km/h (3 Bft)
15.03.2011 07:34 6,0 C 90 % 1020,5 hPa 0,0 l/m 15,3 km/h (3 Bft) O 85 0 min 0 W/m 4,5 C 0,1 C 15,3 km/h (3 Bft)
15.03.2011 07:39 5,9 C 90 % 1020,5 hPa 0,0 l/m 10,2 km/h (2 Bft) O-NO 70 0 min 0 W/m 4,4 C 2,9 C 10,2 km/h (2 Bft)
15.03.2011 07:44 5,8 C 90 % 1020,5 hPa 0,0 l/m 14,9 km/h (3 Bft) O-NO 70 0 min 0 W/m 4,3 C 0,1 C 14,9 km/h (3 Bft)
15.03.2011 07:49 5,8 C 90 % 1020,5 hPa 0,0 l/m 11,2 km/h (2 Bft) O-NO 75 0 min 0 W/m 4,3 C 2,2 C 11,2 km/h (2 Bft)
15.03.2011 07:54 5,7 C 90 % 1020,5 hPa 0,0 l/m 19,0 km/h (3 Bft) O 80 0 min 0 W/m 4,2 C -1,9 C 19,0 km/h (3 Bft)
15.03.2011 07:59 5,7 C 90 % 1020,5 hPa 0,0 l/m 14,5 km/h (3 Bft) O 80 0 min 0 W/m 4,2 C 0,2 C 14,5 km/h (3 Bft)
15.03.2011 08:04 5,7 C 90 % 1020,5 hPa 0,0 l/m 12,9 km/h (3 Bft) O 80 0 min 0 W/m 4,2 C 1,0 C 12,9 km/h (3 Bft)
15.03.2011 08:09 5,7 C 90 % 1020,5 hPa 0,0 l/m 18,6 km/h (3 Bft) O 90 0 min 0 W/m 4,2 C -1,7 C 18,6 km/h (3 Bft)
15.03.2011 08:14 5,6 C 90 % 1020,5 hPa 0,0 l/m 13,0 km/h (3 Bft) O 80 0 min 0 W/m 4,1 C 0,9 C 13,0 km/h (3 Bft)
15.03.2011 08:19 5,6 C 90 % 1020,5 hPa 0,0 l/m 18,3 km/h (3 Bft) O 80 0 min 0 W/m 4,1 C -1,7 C 18,3 km/h (3 Bft)
15.03.2011 08:24 5,6 C 90 % 1021,5 hPa 0,0 l/m 15,1 km/h (3 Bft) O-SO 105 0 min 0 W/m 4,1 C -0,2 C 15,1 km/h (3 Bft)
15.03.2011 08:30 5,6 C 90 % 1020,5 hPa 0,0 l/m 15,1 km/h (3 Bft) O 85 0 min 0 W/m 4,1 C -0,2 C 15,1 km/h (3 Bft)
15.03.2011 08:34 5,6 C 90 % 1020,5 hPa 0,0 l/m 19,4 km/h (3 Bft) O 80 0 min 0 W/m 4,1 C -2,2 C 19,4 km/h (3 Bft)
15.03.2011 08:39 5,6 C 90 % 1021,5 hPa 0,0 l/m 19,2 km/h (3 Bft) O-SO 110 0 min 0 W/m 4,1 C -2,1 C 19,2 km/h (3 Bft)
15.03.2011 08:44 5,6 C 90 % 1021,5 hPa 0,0 l/m 14,5 km/h (3 Bft) O 85 0 min 0 W/m 4,1 C 0,1 C 14,5 km/h (3 Bft)
15.03.2011 08:49 5,6 C 90 % 1021,5 hPa 0,0 l/m 14,8 km/h (3 Bft) O-SO 105 0 min 0 W/m 4,1 C -0,1 C 14,8 km/h (3 Bft)
15.03.2011 08:54 5,6 C 90 % 1021,5 hPa 0,0 l/m 16,8 km/h (3 Bft) O-SO 105 0 min 0 W/m 4,1 C -1,1 C 16,8 km/h (3 Bft)
15.03.2011 08:59 5,5 C 89 % 1021,5 hPa 0,0 l/m 11,0 km/h (2 Bft) O 95 0 min 0 W/m 3,8 C 2,0 C 11,0 km/h (2 Bft)
15.03.2011 09:04 5,5 C 89 % 1021,5 hPa 0,0 l/m 18,3 km/h (3 Bft) O 95 0 min 0 W/m 3,8 C -1,8 C 18,3 km/h (3 Bft)
15.03.2011 09:09 5,6 C 90 % 1021,5 hPa 0,0 l/m 18,1 km/h (3 Bft) O 90 0 min 0 W/m 4,1 C -1,6 C 18,1 km/h (3 Bft)
15.03.2011 09:14 5,5 C 89 % 1021,5 hPa 0,0 l/m 19,5 km/h (3 Bft) O 90 0 min 0 W/m 3,8 C -2,3 C 19,5 km/h (3 Bft)
15.03.2011 09:19 5,4 C 89 % 1021,5 hPa 0,0 l/m 17,0 km/h (3 Bft) O 90 0 min 0 W/m 3,7 C -1,4 C 17,0 km/h (3 Bft)
15.03.2011 09:24 5,4 C 89 % 1021,5 hPa 0,0 l/m 12,2 km/h (2 Bft) O 95 0 min 0 W/m 3,7 C 1,1 C 12,2 km/h (2 Bft)
15.03.2011 09:29 5,4 C 89 % 1021,5 hPa 0,0 l/m 19,7 km/h (3 Bft) O 90 0 min 0 W/m 3,7 C -2,5 C 19,7 km/h (3 Bft)
15.03.2011 09:35 5,4 C 89 % 1021,5 hPa 0,0 l/m 19,6 km/h (3 Bft) O 85 0 min 0 W/m 3,7 C -2,5 C 19,6 km/h (3 Bft)
15.03.2011 09:39 5,4 C 89 % 1021,5 hPa 0,0 l/m 14,5 km/h (3 Bft) O 90 0 min 0 W/m 3,7 C -0,2 C 14,5 km/h (3 Bft)
15.03.2011 09:44 5,4 C 89 % 1021,5 hPa 0,0 l/m 16,6 km/h (3 Bft) O-SO 110 0 min 0 W/m 3,7 C -1,2 C 16,6 km/h (3 Bft)
15.03.2011 09:49 5,5 C 89 % 1021,5 hPa 0,0 l/m 13,8 km/h (3 Bft) O 95 0 min 0 W/m 3,8 C 0,3 C 13,8 km/h (3 Bft)
15.03.2011 09:54 5,4 C 89 % 1021,5 hPa 0,0 l/m 14,3 km/h (3 Bft) O-SO 105 0 min 0 W/m 3,7 C -0,1 C 14,3 km/h (3 Bft)
15.03.2011 09:59 5,4 C 89 % 1021,5 hPa 0,0 l/m 18,8 km/h (3 Bft) O-NO 70 0 min 0 W/m 3,7 C -2,2 C 18,8 km/h (3 Bft)
15.03.2011 10:04 5,4 C 89 % 1021,5 hPa 0,0 l/m 16,1 km/h (3 Bft) O 85 0 min 0 W/m 3,7 C -1,0 C 16,1 km/h (3 Bft)
15.03.2011 10:09 5,4 C 89 % 1021,5 hPa 0,0 l/m 19,3 km/h (3 Bft) O 85 0 min 0 W/m 3,7 C -2,4 C 19,3 km/h (3 Bft)
15.03.2011 10:14 5,3 C 89 % 1021,5 hPa 0,0 l/m 17,1 km/h (3 Bft) O-SO 110 0 min 0 W/m 3,6 C -1,6 C 17,1 km/h (3 Bft)
15.03.2011 10:19 5,4 C 89 % 1021,5 hPa 0,0 l/m 15,5 km/h (3 Bft) O 95 0 min 0 W/m 3,7 C -0,7 C 15,5 km/h (3 Bft)
15.03.2011 10:24 5,4 C 89 % 1021,5 hPa 0,0 l/m 17,6 km/h (3 Bft) O 100 0 min 0 W/m 3,7 C -1,7 C 17,6 km/h (3 Bft)
15.03.2011 10:29 5,4 C 89 % 1021,5 hPa 0,0 l/m 20,6 km/h (4 Bft) O-SO 105 0 min 0 W/m 3,7 C -2,9 C 20,6 km/h (4 Bft)
15.03.2011 10:34 5,4 C 89 % 1021,5 hPa 0,0 l/m 16,5 km/h (3 Bft) O-SO 105 0 min 0 W/m 3,7 C -1,2 C 16,5 km/h (3 Bft)
15.03.2011 10:39 5,5 C 89 % 1021,5 hPa 0,0 l/m 16,8 km/h (3 Bft) O-SO 115 0 min 0 W/m 3,8 C -1,2 C 16,8 km/h (3 Bft)
15.03.2011 10:44 5,6 C 89 % 1021,5 hPa 0,0 l/m 17,6 km/h (3 Bft) O 100 0 min 0 W/m 3,9 C -1,4 C 17,6 km/h (3 Bft)
15.03.2011 10:49 5,6 C 88 % 1021,5 hPa 0,0 l/m 12,5 km/h (2 Bft) O-SO 105 0 min 0 W/m 3,8 C 1,2 C 12,5 km/h (2 Bft)
15.03.2011 10:54 5,5 C 88 % 1021,5 hPa 0,0 l/m 20,0 km/h (4 Bft) SO 135 0 min 0 W/m 3,7 C -2,5 C 20,0 km/h (4 Bft)
15.03.2011 10:59 5,5 C 88 % 1021,5 hPa 0,0 l/m 19,5 km/h (3 Bft) O-SO 110 0 min 0 W/m 3,7 C -2,3 C 19,5 km/h (3 Bft)
15.03.2011 11:05 5,5 C 88 % 1021,5 hPa 0,0 l/m 22,8 km/h (4 Bft) O-SO 120 0 min 0 W/m 3,7 C -3,5 C 22,8 km/h (4 Bft)
15.03.2011 11:09 5,6 C 88 % 1021,5 hPa 0,0 l/m 17,6 km/h (3 Bft) O-SO 110 0 min 0 W/m 3,8 C -1,4 C 17,6 km/h (3 Bft)
15.03.2011 11:14 5,6 C 88 % 1021,5 hPa 0,0 l/m 16,1 km/h (3 Bft) O-SO 110 0 min 0 W/m 3,8 C -0,7 C 16,1 km/h (3 Bft)
15.03.2011 11:19 5,6 C 88 % 1021,5 hPa 0,0 l/m 15,3 km/h (3 Bft) O 95 0 min 0 W/m 3,8 C -0,3 C 15,3 km/h (3 Bft)
15.03.2011 11:24 5,6 C 88 % 1021,5 hPa 0,0 l/m 23,8 km/h (4 Bft) O 95 0 min 0 W/m 3,8 C -3,7 C 23,8 km/h (4 Bft)
15.03.2011 11:29 5,7 C 88 % 1021,5 hPa 0,0 l/m 21,5 km/h (4 Bft) O-SO 105 0 min 0 W/m 3,9 C -2,8 C 21,5 km/h (4 Bft)
15.03.2011 11:34 5,7 C 87 % 1021,5 hPa 0,0 l/m 24,6 km/h (4 Bft) O 90 0 min 0 W/m 3,7 C -3,9 C 24,6 km/h (4 Bft)
15.03.2011 11:40 5,6 C 88 % 1021,5 hPa 0,0 l/m 22,6 km/h (4 Bft) O 100 0 min 0 W/m 3,8 C -3,3 C 22,6 km/h (4 Bft)
15.03.2011 11:44 5,7 C 87 % 1021,5 hPa 0,0 l/m 19,5 km/h (3 Bft) O 100 0 min 0 W/m 3,7 C -2,1 C 19,5 km/h (3 Bft)
15.03.2011 11:49 5,7 C 87 % 1021,5 hPa 0,0 l/m 16,1 km/h (3 Bft) O-SO 115 0 min 0 W/m 3,7 C -0,6 C 16,1 km/h (3 Bft)
15.03.2011 11:54 5,8 C 88 % 1021,5 hPa 0,0 l/m 18,0 km/h (3 Bft) O-SO 120 0 min 0 W/m 4,0 C -1,3 C 18,0 km/h (3 Bft)
15.03.2011 11:59 5,9 C 87 % 1021,5 hPa 0,0 l/m 15,9 km/h (3 Bft) O-SO 105 0 min 0 W/m 3,9 C -0,3 C 15,9 km/h (3 Bft)
15.03.2011 12:05 5,8 C 87 % 1021,5 hPa 0,0 l/m 9,3 km/h (2 Bft) SO 145 0 min 0 W/m 3,8 C 3,4 C 9,3 km/h (2 Bft)
15.03.2011 12:09 5,8 C 87 % 1021,5 hPa 0,0 l/m 24,0 km/h (4 Bft) O 100 0 min 0 W/m 3,8 C -3,5 C 24,0 km/h (4 Bft)
15.03.2011 12:14 5,7 C 87 % 1021,5 hPa 0,0 l/m 17,3 km/h (3 Bft) O 90 0 min 0 W/m 3,7 C -1,2 C 17,3 km/h (3 Bft)
15.03.2011 12:19 5,7 C 87 % 1021,5 hPa 0,0 l/m 16,7 km/h (3 Bft) O-SO 110 0 min 0 W/m 3,7 C -0,9 C 16,7 km/h (3 Bft)
15.03.2011 12:24 5,7 C 87 % 1021,5 hPa 0,0 l/m 18,6 km/h (3 Bft) O 95 0 min 0 W/m 3,7 C -1,7 C 18,6 km/h (3 Bft)
15.03.2011 12:29 5,7 C 87 % 1021,5 hPa 0,0 l/m 17,8 km/h (3 Bft) O 100 0 min 0 W/m 3,7 C -1,4 C 17,8 km/h (3 Bft)
15.03.2011 12:34 5,8 C 87 % 1021,5 hPa 0,0 l/m 20,8 km/h (4 Bft) O 100 0 min 0 W/m 3,8 C -2,4 C 20,8 km/h (4 Bft)
15.03.2011 12:40 5,8 C 87 % 1021,5 hPa 0,0 l/m 25,6 km/h (4 Bft) O-SO 105 0 min 0 W/m 3,8 C -4,0 C 25,6 km/h (4 Bft)
15.03.2011 12:44 5,8 C 86 % 1021,5 hPa 0,0 l/m 24,7 km/h (4 Bft) O-SO 110 0 min 0 W/m 3,6 C -3,8 C 24,7 km/h (4 Bft)
15.03.2011 12:49 5,9 C 86 % 1021,5 hPa 0,0 l/m 14,7 km/h (3 Bft) SO 140 0 min 0 W/m 3,7 C 0,3 C 14,7 km/h (3 Bft)
15.03.2011 12:54 5,9 C 86 % 1021,5 hPa 0,0 l/m 17,6 km/h (3 Bft) O-SO 115 0 min 0 W/m 3,7 C -1,0 C 17,6 km/h (3 Bft)
15.03.2011 12:59 5,9 C 86 % 1020,5 hPa 0,0 l/m 18,9 km/h (3 Bft) O-SO 120 0 min 0 W/m 3,7 C -1,6 C 18,9 km/h (3 Bft)
15.03.2011 13:05 6,0 C 86 % 1020,5 hPa 0,0 l/m 14,1 km/h (3 Bft) O 95 0 min 0 W/m 3,8 C 0,7 C 14,1 km/h (3 Bft)
15.03.2011 13:09 6,1 C 86 % 1020,5 hPa 0,0 l/m 18,5 km/h (3 Bft) O-SO 105 0 min 0 W/m 3,9 C -1,2 C 18,5 km/h (3 Bft)
15.03.2011 13:14 6,2 C 86 % 1020,5 hPa 0,0 l/m 23,9 km/h (4 Bft) O 95 0 min 0 W/m 4,0 C -3,0 C 23,9 km/h (4 Bft)
15.03.2011 13:19 6,2 C 86 % 1020,5 hPa 0,0 l/m 21,3 km/h (4 Bft) O-SO 110 0 min 0 W/m 4,0 C -2,1 C 21,3 km/h (4 Bft)
15.03.2011 13:24 6,2 C 86 % 1020,5 hPa 0,0 l/m 17,9 km/h (3 Bft) O-SO 115 0 min 0 W/m 4,0 C -0,8 C 17,9 km/h (3 Bft)
15.03.2011 13:29 6,2 C 86 % 1020,5 hPa 0,0 l/m 20,6 km/h (4 Bft) O-SO 115 0 min 0 W/m 4,0 C -1,8 C 20,6 km/h (4 Bft)
15.03.2011 13:34 6,3 C 86 % 1020,5 hPa 0,0 l/m 25,0 km/h (4 Bft) O-SO 110 0 min 0 W/m 4,1 C -3,2 C 25,0 km/h (4 Bft)
15.03.2011 13:39 6,4 C 86 % 1020,5 hPa 0,0 l/m 15,3 km/h (3 Bft) SO 125 0 min 0 W/m 4,2 C 0,6 C 15,3 km/h (3 Bft)
15.03.2011 13:44 6,3 C 86 % 1020,5 hPa 0,0 l/m 22,1 km/h (4 Bft) O-SO 115 0 min 0 W/m 4,1 C -2,2 C 22,1 km/h (4 Bft)
15.03.2011 13:49 6,3 C 86 % 1020,5 hPa 0,0 l/m 18,5 km/h (3 Bft) O 100 0 min 0 W/m 4,1 C -0,9 C 18,5 km/h (3 Bft)
15.03.2011 13:54 6,5 C 86 % 1020,5 hPa 0,0 l/m 18,8 km/h (3 Bft) O 80 0 min 0 W/m 4,3 C -0,8 C 18,8 km/h (3 Bft)
15.03.2011 13:59 6,4 C 85 % 1020,5 hPa 0,0 l/m 17,2 km/h (3 Bft) O-SO 115 0 min 0 W/m 4,1 C -0,2 C 17,2 km/h (3 Bft)
15.03.2011 14:04 6,3 C 85 % 1020,5 hPa 0,0 l/m 18,5 km/h (3 Bft) O-SO 110 0 min 0 W/m 4,0 C -0,9 C 18,5 km/h (3 Bft)
15.03.2011 14:09 6,3 C 86 % 1020,5 hPa 0,0 l/m 20,4 km/h (4 Bft) O-SO 115 0 min 0 W/m 4,1 C -1,6 C 20,4 km/h (4 Bft)
15.03.2011 14:14 6,2 C 86 % 1020,5 hPa 0,0 l/m 19,3 km/h (3 Bft) O-SO 120 0 min 0 W/m 4,0 C -1,4 C 19,3 km/h (3 Bft)
15.03.2011 14:19 6,3 C 86 % 1020,5 hPa 0,0 l/m 11,1 km/h (2 Bft) O-SO 120 0 min 0 W/m 4,1 C 2,8 C 11,1 km/h (2 Bft)
15.03.2011 14:24 6,2 C 86 % 1020,5 hPa 0,0 l/m 19,5 km/h (3 Bft) O-SO 120 0 min 0 W/m 4,0 C -1,4 C 19,5 km/h (3 Bft)
15.03.2011 14:29 6,2 C 86 % 1020,5 hPa 0,0 l/m 24,2 km/h (4 Bft) O 100 0 min 0 W/m 4,0 C -3,1 C 24,2 km/h (4 Bft)
15.03.2011 14:35 6,2 C 86 % 1020,5 hPa 0,0 l/m 23,5 km/h (4 Bft) O 100 0 min 0 W/m 4,0 C -2,8 C 23,5 km/h (4 Bft)
15.03.2011 14:39 6,2 C 86 % 1020,5 hPa 0,0 l/m 17,0 km/h (3 Bft) SO 125 0 min 0 W/m 4,0 C -0,4 C 17,0 km/h (3 Bft)
15.03.2011 14:44 6,2 C 86 % 1020,5 hPa 0,0 l/m 12,9 km/h (3 Bft) O-SO 105 0 min 0 W/m 4,0 C 1,6 C 12,9 km/h (3 Bft)
15.03.2011 14:49 6,1 C 86 % 1020,5 hPa 0,0 l/m 19,1 km/h (3 Bft) O 95 0 min 0 W/m 3,9 C -1,4 C 19,1 km/h (3 Bft)
15.03.2011 14:54 6,2 C 86 % 1020,5 hPa 0,0 l/m 18,6 km/h (3 Bft) O 95 0 min 0 W/m 4,0 C -1,1 C 18,6 km/h (3 Bft)
15.03.2011 14:59 6,2 C 86 % 1020,5 hPa 0,0 l/m 19,1 km/h (3 Bft) O 100 0 min 0 W/m 4,0 C -1,3 C 19,1 km/h (3 Bft)
15.03.2011 15:04 6,2 C 86 % 1020,5 hPa 0,0 l/m 16,5 km/h (3 Bft) O 90 0 min 0 W/m 4,0 C -0,2 C 16,5 km/h (3 Bft)
15.03.2011 15:09 6,2 C 86 % 1020,5 hPa 0,0 l/m 18,0 km/h (3 Bft) O-SO 105 0 min 0 W/m 4,0 C -0,8 C 18,0 km/h (3 Bft)
15.03.2011 15:14 6,3 C 86 % 1020,5 hPa 0,0 l/m 22,3 km/h (4 Bft) O 90 0 min 0 W/m 4,1 C -2,3 C 22,3 km/h (4 Bft)
15.03.2011 15:19 6,3 C 86 % 1020,5 hPa 0,0 l/m 19,8 km/h (3 Bft) O 95 0 min 0 W/m 4,1 C -1,4 C 19,8 km/h (3 Bft)
15.03.2011 15:24 6,4 C 86 % 1020,5 hPa 0,0 l/m 15,2 km/h (3 Bft) O 80 0 min 0 W/m 4,2 C 0,7 C 15,2 km/h (3 Bft)
15.03.2011 15:29 6,4 C 86 % 1020,5 hPa 0,0 l/m 20,2 km/h (4 Bft) O 90 0 min 0 W/m 4,2 C -1,4 C 20,2 km/h (4 Bft)
15.03.2011 15:34 6,4 C 85 % 1020,5 hPa 0,0 l/m 28,1 km/h (5 Bft) O 80 0 min 0 W/m 4,1 C -3,9 C 28,1 km/h (5 Bft)
15.03.2011 15:39 6,5 C 85 % 1020,5 hPa 0,0 l/m 13,9 km/h (3 Bft) O-SO 105 0 min 0 W/m 4,2 C 1,4 C 13,9 km/h (3 Bft)
15.03.2011 15:44 6,5 C 85 % 1020,5 hPa 0,0 l/m 23,9 km/h (4 Bft) O-SO 120 0 min 0 W/m 4,2 C -2,6 C 23,9 km/h (4 Bft)
15.03.2011 15:49 6,6 C 85 % 1020,5 hPa 0,0 l/m 18,4 km/h (3 Bft) O 90 0 min 0 W/m 4,3 C -0,5 C 18,4 km/h (3 Bft)
15.03.2011 15:54 6,7 C 84 % 1020,5 hPa 0,0 l/m 17,5 km/h (3 Bft) O 90 0 min 0 W/m 4,2 C 0,0 C 17,5 km/h (3 Bft)
15.03.2011 15:59 6,7 C 84 % 1019,5 hPa 0,0 l/m 20,1 km/h (4 Bft) O-SO 115 0 min 0 W/m 4,2 C -1,0 C 20,1 km/h (4 Bft)
15.03.2011 16:04 6,7 C 84 % 1019,5 hPa 0,0 l/m 14,9 km/h (3 Bft) O 80 0 min 0 W/m 4,2 C 1,2 C 14,9 km/h (3 Bft)
15.03.2011 16:09 6,7 C 84 % 1019,5 hPa 0,0 l/m 28,0 km/h (5 Bft) O 95 0 min 0 W/m 4,2 C -3,5 C 28,0 km/h (5 Bft)
15.03.2011 16:14 6,6 C 84 % 1019,5 hPa 0,0 l/m 19,2 km/h (3 Bft) O 95 0 min 0 W/m 4,1 C -0,8 C 19,2 km/h (3 Bft)
15.03.2011 16:19 6,6 C 84 % 1019,5 hPa 0,0 l/m 23,9 km/h (4 Bft) O 95 0 min 0 W/m 4,1 C -2,4 C 23,9 km/h (4 Bft)
15.03.2011 16:24 6,6 C 84 % 1019,5 hPa 0,0 l/m 19,1 km/h (3 Bft) O 100 0 min 0 W/m 4,1 C -0,8 C 19,1 km/h (3 Bft)
15.03.2011 16:29 6,5 C 84 % 1019,5 hPa 0,0 l/m 16,1 km/h (3 Bft) O 90 0 min 0 W/m 4,0 C 0,4 C 16,1 km/h (3 Bft)
15.03.2011 16:34 6,5 C 84 % 1019,5 hPa 0,0 l/m 24,0 km/h (4 Bft) O-SO 105 0 min 0 W/m 4,0 C -2,6 C 24,0 km/h (4 Bft)
15.03.2011 16:39 6,5 C 84 % 1019,5 hPa 0,0 l/m 18,8 km/h (3 Bft) O-SO 110 0 min 0 W/m 4,0 C -0,8 C 18,8 km/h (3 Bft)
15.03.2011 16:44 6,5 C 84 % 1019,5 hPa 0,0 l/m 23,2 km/h (4 Bft) O 100 0 min 0 W/m 4,0 C -2,3 C 23,2 km/h (4 Bft)
15.03.2011 16:49 6,5 C 84 % 1020,5 hPa 0,0 l/m 20,6 km/h (4 Bft) O-NO 75 0 min 0 W/m 4,0 C -1,5 C 20,6 km/h (4 Bft)
15.03.2011 16:54 6,5 C 84 % 1019,5 hPa 0,0 l/m 23,7 km/h (4 Bft) O-SO 105 0 min 0 W/m 4,0 C -2,5 C 23,7 km/h (4 Bft)
15.03.2011 17:00 6,4 C 84 % 1019,5 hPa 0,0 l/m 17,0 km/h (3 Bft) O-SO 115 0 min 0 W/m 3,9 C -0,1 C 17,0 km/h (3 Bft)
15.03.2011 17:04 6,4 C 84 % 1019,5 hPa 0,0 l/m 14,2 km/h (3 Bft) O 95 0 min 0 W/m 3,9 C 1,2 C 14,2 km/h (3 Bft)
15.03.2011 17:09 6,3 C 84 % 1019,5 hPa 0,0 l/m 19,1 km/h (3 Bft) O 90 0 min 0 W/m 3,8 C -1,1 C 19,1 km/h (3 Bft)
15.03.2011 17:14 6,3 C 85 % 1020,5 hPa 0,0 l/m 19,6 km/h (3 Bft) O 95 0 min 0 W/m 4,0 C -1,3 C 19,6 km/h (3 Bft)
15.03.2011 17:20 6,4 C 84 % 1020,5 hPa 0,0 l/m 20,2 km/h (4 Bft) O 85 0 min 0 W/m 3,9 C -1,4 C 20,2 km/h (4 Bft)
15.03.2011 17:24 6,4 C 84 % 1019,5 hPa 0,0 l/m 22,8 km/h (4 Bft) O 100 0 min 0 W/m 3,9 C -2,4 C 22,8 km/h (4 Bft)
15.03.2011 17:29 6,3 C 84 % 1019,5 hPa 0,0 l/m 24,6 km/h (4 Bft) O-SO 110 0 min 0 W/m 3,8 C -3,1 C 24,6 km/h (4 Bft)
15.03.2011 17:34 6,2 C 84 % 1020,5 hPa 0,0 l/m 23,9 km/h (4 Bft) SO 125 0 min 0 W/m 3,7 C -3,0 C 23,9 km/h (4 Bft)
15.03.2011 17:39 6,2 C 84 % 1020,5 hPa 0,0 l/m 23,4 km/h (4 Bft) O-SO 105 0 min 0 W/m 3,7 C -2,8 C 23,4 km/h (4 Bft)
15.03.2011 17:44 6,1 C 84 % 1020,5 hPa 0,0 l/m 30,3 km/h (5 Bft) O 100 0 min 0 W/m 3,6 C -4,9 C 30,3 km/h (5 Bft)
15.03.2011 17:49 6,1 C 84 % 1020,5 hPa 0,0 l/m 23,6 km/h (4 Bft) O 95 0 min 0 W/m 3,6 C -3,0 C 23,6 km/h (4 Bft)
15.03.2011 17:54 6,1 C 84 % 1020,5 hPa 0,0 l/m 19,8 km/h (3 Bft) O-SO 115 0 min 0 W/m 3,6 C -1,7 C 19,8 km/h (3 Bft)
15.03.2011 17:59 6,0 C 84 % 1020,5 hPa 0,0 l/m 23,6 km/h (4 Bft) O 100 0 min 0 W/m 3,5 C -3,1 C 23,6 km/h (4 Bft)
15.03.2011 18:04 6,0 C 84 % 1020,5 hPa 0,0 l/m 20,8 km/h (4 Bft) O 100 0 min 0 W/m 3,5 C -2,2 C 20,8 km/h (4 Bft)
15.03.2011 18:09 6,0 C 84 % 1020,5 hPa 0,0 l/m 30,3 km/h (5 Bft) O 95 0 min 0 W/m 3,5 C -5,0 C 30,3 km/h (5 Bft)
15.03.2011 18:14 6,0 C 84 % 1020,5 hPa 0,0 l/m 18,8 km/h (3 Bft) O 85 0 min 0 W/m 3,5 C -1,4 C 18,8 km/h (3 Bft)
15.03.2011 18:19 6,0 C 84 % 1020,5 hPa 0,0 l/m 18,8 km/h (3 Bft) O 95 0 min 0 W/m 3,5 C -1,4 C 18,8 km/h (3 Bft)
15.03.2011 18:24 5,9 C 84 % 1020,5 hPa 0,0 l/m 20,3 km/h (4 Bft) O 95 0 min 0 W/m 3,4 C -2,1 C 20,3 km/h (4 Bft)
15.03.2011 18:29 5,9 C 84 % 1020,5 hPa 0,0 l/m 28,1 km/h (5 Bft) O-SO 110 0 min 0 W/m 3,4 C -4,6 C 28,1 km/h (5 Bft)
15.03.2011 18:34 6,0 C 84 % 1020,5 hPa 0,0 l/m 26,9 km/h (4 Bft) O 100 0 min 0 W/m 3,5 C -4,1 C 26,9 km/h (4 Bft)
15.03.2011 18:39 5,9 C 84 % 1020,5 hPa 0,0 l/m 23,8 km/h (4 Bft) O-SO 110 0 min 0 W/m 3,4 C -3,3 C 23,8 km/h (4 Bft)
15.03.2011 18:45 5,9 C 84 % 1020,5 hPa 0,0 l/m 20,4 km/h (4 Bft) O-SO 115 0 min 0 W/m 3,4 C -2,2 C 20,4 km/h (4 Bft)
15.03.2011 18:49 5,8 C 84 % 1020,5 hPa 0,0 l/m 22,8 km/h (4 Bft) O 100 0 min 0 W/m 3,3 C -3,1 C 22,8 km/h (4 Bft)
15.03.2011 18:54 5,7 C 84 % 1020,5 hPa 0,0 l/m 20,4 km/h (4 Bft) O-SO 105 0 min 0 W/m 3,2 C -2,4 C 20,4 km/h (4 Bft)
15.03.2011 18:59 5,6 C 84 % 1020,5 hPa 0,0 l/m 31,3 km/h (5 Bft) O 100 0 min 0 W/m 3,1 C -5,9 C 31,3 km/h (5 Bft)
15.03.2011 19:05 5,6 C 84 % 1020,5 hPa 0,0 l/m 24,4 km/h (4 Bft) O-SO 110 0 min 0 W/m 3,1 C -3,9 C 24,4 km/h (4 Bft)
15.03.2011 19:09 5,4 C 84 % 1020,5 hPa 0,0 l/m 25,4 km/h (4 Bft) O 80 0 min 0 W/m 2,9 C -4,5 C 25,4 km/h (4 Bft)
15.03.2011 19:14 5,3 C 84 % 1020,5 hPa 0,0 l/m 21,5 km/h (4 Bft) O-SO 105 0 min 0 W/m 2,8 C -3,4 C 21,5 km/h (4 Bft)
15.03.2011 19:19 5,3 C 84 % 1020,5 hPa 0,0 l/m 26,1 km/h (4 Bft) O-SO 105 0 min 0 W/m 2,8 C -4,9 C 26,1 km/h (4 Bft)
15.03.2011 19:24 5,2 C 84 % 1020,5 hPa 0,0 l/m 19,5 km/h (3 Bft) O-SO 105 0 min 0 W/m 2,7 C -2,7 C 19,5 km/h (3 Bft)
15.03.2011 19:29 5,2 C 84 % 1020,5 hPa 0,0 l/m 19,1 km/h (3 Bft) O 90 0 min 0 W/m 2,7 C -2,6 C 19,1 km/h (3 Bft)
15.03.2011 19:35 5,2 C 84 % 1020,5 hPa 0,0 l/m 23,1 km/h (4 Bft) O 95 0 min 0 W/m 2,7 C -4,0 C 23,1 km/h (4 Bft)
15.03.2011 19:39 5,1 C 84 % 1020,5 hPa 0,0 l/m 21,2 km/h (4 Bft) O-SO 110 0 min 0 W/m 2,6 C -3,5 C 21,2 km/h (4 Bft)
15.03.2011 19:44 4,9 C 84 % 1020,5 hPa 0,0 l/m 25,0 km/h (4 Bft) O-NO 75 0 min 0 W/m 2,4 C -5,1 C 25,0 km/h (4 Bft)
15.03.2011 19:49 4,9 C 83 % 1020,5 hPa 0,0 l/m 26,6 km/h (4 Bft) O 95 0 min 0 W/m 2,3 C -5,6 C 26,6 km/h (4 Bft)
15.03.2011 19:54 4,7 C 83 % 1020,5 hPa 0,0 l/m 28,8 km/h (5 Bft) O 95 0 min 0 W/m 2,1 C -6,5 C 28,8 km/h (5 Bft)
15.03.2011 19:59 4,5 C 83 % 1020,5 hPa 0,0 l/m 21,9 km/h (4 Bft) O 100 0 min 0 W/m 1,9 C -4,6 C 21,9 km/h (4 Bft)
15.03.2011 20:04 4,5 C 83 % 1020,5 hPa 0,0 l/m 18,5 km/h (3 Bft) O 95 0 min 0 W/m 1,9 C -3,2 C 18,5 km/h (3 Bft)
15.03.2011 20:09 4,3 C 83 % 1020,5 hPa 0,0 l/m 20,8 km/h (4 Bft) O 100 0 min 0 W/m 1,7 C -4,4 C 20,8 km/h (4 Bft)
15.03.2011 20:14 4,3 C 83 % 1020,5 hPa 0,0 l/m 21,2 km/h (4 Bft) O-SO 105 0 min 0 W/m 1,7 C -4,6 C 21,2 km/h (4 Bft)
15.03.2011 20:19 4,2 C 82 % 1020,5 hPa 0,0 l/m 29,8 km/h (5 Bft) O 100 0 min 0 W/m 1,4 C -7,4 C 29,8 km/h (5 Bft)
15.03.2011 20:25 4,2 C 83 % 1020,5 hPa 0,0 l/m 26,8 km/h (4 Bft) O 95 0 min 0 W/m 1,6 C -6,6 C 26,8 km/h (4 Bft)
15.03.2011 20:29 4,1 C 83 % 1020,5 hPa 0,0 l/m 20,0 km/h (4 Bft) O 85 0 min 0 W/m 1,5 C -4,3 C 20,0 km/h (4 Bft)
15.03.2011 20:34 4,0 C 83 % 1020,5 hPa 0,0 l/m 27,3 km/h (5 Bft) O 90 0 min 0 W/m 1,4 C -7,0 C 27,3 km/h (5 Bft)
15.03.2011 20:39 4,0 C 83 % 1020,5 hPa 0,0 l/m 18,1 km/h (3 Bft) O 80 0 min 0 W/m 1,4 C -3,6 C 18,1 km/h (3 Bft)
15.03.2011 20:44 3,9 C 83 % 1020,5 hPa 0,0 l/m 23,1 km/h (4 Bft) O 95 0 min 0 W/m 1,3 C -5,8 C 23,1 km/h (4 Bft)
15.03.2011 20:49 3,9 C 83 % 1020,5 hPa 0,0 l/m 12,9 km/h (3 Bft) O 95 0 min 0 W/m 1,3 C -1,1 C 12,9 km/h (3 Bft)
15.03.2011 20:55 3,9 C 83 % 1020,5 hPa 0,0 l/m 21,0 km/h (4 Bft) O-SO 115 0 min 0 W/m 1,3 C -5,0 C 21,0 km/h (4 Bft)
15.03.2011 20:59 3,8 C 82 % 1020,5 hPa 0,0 l/m 20,5 km/h (4 Bft) O-SO 105 0 min 0 W/m 1,0 C -4,9 C 20,5 km/h (4 Bft)
15.03.2011 21:04 3,7 C 83 % 1020,5 hPa 0,0 l/m 21,1 km/h (4 Bft) O 80 0 min 0 W/m 1,1 C -5,3 C 21,1 km/h (4 Bft)
15.03.2011 21:09 3,7 C 83 % 1020,5 hPa 0,0 l/m 21,6 km/h (4 Bft) O-SO 105 0 min 0 W/m 1,1 C -5,5 C 21,6 km/h (4 Bft)
15.03.2011 21:14 3,6 C 82 % 1020,5 hPa 0,0 l/m 21,6 km/h (4 Bft) O-SO 105 0 min 0 W/m 0,8 C -5,6 C 21,6 km/h (4 Bft)
15.03.2011 21:20 3,6 C 82 % 1020,5 hPa 0,0 l/m 29,1 km/h (5 Bft) O-SO 105 0 min 0 W/m 0,8 C -8,1 C 29,1 km/h (5 Bft)
15.03.2011 21:24 3,5 C 82 % 1020,5 hPa 0,0 l/m 22,5 km/h (4 Bft) SO 125 0 min 0 W/m 0,7 C -6,1 C 22,5 km/h (4 Bft)
15.03.2011 21:29 3,5 C 82 % 1020,5 hPa 0,0 l/m 20,6 km/h (4 Bft) O 100 0 min 0 W/m 0,7 C -5,4 C 20,6 km/h (4 Bft)
15.03.2011 21:34 3,5 C 81 % 1020,5 hPa 0,0 l/m 25,9 km/h (4 Bft) O-SO 110 0 min 0 W/m 0,6 C -7,3 C 25,9 km/h (4 Bft)
15.03.2011 21:39 3,4 C 82 % 1020,5 hPa 0,0 l/m 26,1 km/h (4 Bft) O-SO 105 0 min 0 W/m 0,6 C -7,5 C 26,1 km/h (4 Bft)
15.03.2011 21:44 3,4 C 82 % 1021,5 hPa 0,0 l/m 33,1 km/h (5 Bft) O 100 0 min 0 W/m 0,6 C -9,4 C 33,1 km/h (5 Bft)
15.03.2011 21:50 3,3 C 82 % 1020,5 hPa 0,0 l/m 32,7 km/h (5 Bft) O-SO 110 0 min 0 W/m 0,5 C -9,5 C 32,7 km/h (5 Bft)
15.03.2011 21:54 3,3 C 82 % 1020,5 hPa 0,0 l/m 22,5 km/h (4 Bft) O 100 0 min 0 W/m 0,5 C -6,4 C 22,5 km/h (4 Bft)
15.03.2011 21:59 3,2 C 82 % 1020,5 hPa 0,0 l/m 22,5 km/h (4 Bft) O 95 0 min 0 W/m 0,4 C -6,5 C 22,5 km/h (4 Bft)
15.03.2011 22:04 3,2 C 82 % 1020,5 hPa 0,0 l/m 24,8 km/h (4 Bft) O 100 0 min 0 W/m 0,4 C -7,3 C 24,8 km/h (4 Bft)
15.03.2011 22:10 3,2 C 82 % 1020,5 hPa 0,0 l/m 21,5 km/h (4 Bft) O 90 0 min 0 W/m 0,4 C -6,1 C 21,5 km/h (4 Bft)
15.03.2011 22:14 3,1 C 82 % 1021,5 hPa 0,0 l/m 24,3 km/h (4 Bft) O 100 0 min 0 W/m 0,3 C -7,3 C 24,3 km/h (4 Bft)
15.03.2011 22:19 3,1 C 82 % 1020,5 hPa 0,0 l/m 24,3 km/h (4 Bft) O 100 0 min 0 W/m 0,3 C -7,3 C 24,3 km/h (4 Bft)
15.03.2011 22:24 3,1 C 83 % 1021,5 hPa 0,0 l/m 21,1 km/h (4 Bft) O-SO 115 0 min 0 W/m 0,5 C -6,1 C 21,1 km/h (4 Bft)
15.03.2011 22:29 3,0 C 82 % 1020,5 hPa 0,0 l/m 26,4 km/h (4 Bft) O 95 0 min 0 W/m 0,2 C -8,1 C 26,4 km/h (4 Bft)
15.03.2011 22:34 3,0 C 83 % 1021,5 hPa 0,0 l/m 28,7 km/h (5 Bft) O-SO 105 0 min 0 W/m 0,4 C -8,8 C 28,7 km/h (5 Bft)
15.03.2011 22:39 3,0 C 83 % 1021,5 hPa 0,0 l/m 27,7 km/h (5 Bft) O-SO 105 0 min 0 W/m 0,4 C -8,5 C 27,7 km/h (5 Bft)
15.03.2011 22:44 2,9 C 83 % 1021,5 hPa 0,0 l/m 24,6 km/h (4 Bft) O 95 0 min 0 W/m 0,3 C -7,7 C 24,6 km/h (4 Bft)
15.03.2011 22:49 2,9 C 83 % 1021,5 hPa 0,0 l/m 29,8 km/h (5 Bft) O 95 0 min 0 W/m 0,3 C -9,3 C 29,8 km/h (5 Bft)
15.03.2011 22:54 2,9 C 83 % 1021,5 hPa 0,0 l/m 26,7 km/h (4 Bft) O-SO 105 0 min 0 W/m 0,3 C -8,3 C 26,7 km/h (4 Bft)
15.03.2011 22:59 2,8 C 83 % 1021,5 hPa 0,0 l/m 23,8 km/h (4 Bft) O-SO 110 0 min 0 W/m 0,2 C -7,5 C 23,8 km/h (4 Bft)
15.03.2011 23:04 2,8 C 83 % 1021,5 hPa 0,0 l/m 19,7 km/h (3 Bft) O 95 0 min 0 W/m 0,2 C -5,9 C 19,7 km/h (3 Bft)
15.03.2011 23:09 2,7 C 83 % 1021,5 hPa 0,0 l/m 23,0 km/h (4 Bft) O 100 0 min 0 W/m 0,1 C -7,3 C 23,0 km/h (4 Bft)
15.03.2011 23:14 2,7 C 83 % 1021,5 hPa 0,0 l/m 14,8 km/h (3 Bft) O-SO 105 0 min 0 W/m 0,1 C -3,6 C 14,8 km/h (3 Bft)
15.03.2011 23:19 2,7 C 83 % 1021,5 hPa 0,0 l/m 28,6 km/h (5 Bft) O-SO 110 0 min 0 W/m 0,1 C -9,2 C 28,6 km/h (5 Bft)
15.03.2011 23:24 2,7 C 83 % 1021,5 hPa 0,0 l/m 32,9 km/h (5 Bft) O-SO 105 0 min 0 W/m 0,1 C -10,4 C 32,9 km/h (5 Bft)
15.03.2011 23:30 2,7 C 83 % 1021,5 hPa 0,0 l/m 25,9 km/h (4 Bft) O 100 0 min 0 W/m 0,1 C -8,4 C 25,9 km/h (4 Bft)
15.03.2011 23:34 2,6 C 83 % 1021,5 hPa 0,0 l/m 20,5 km/h (4 Bft) O-SO 105 0 min 0 W/m 0,0 C -6,5 C 20,5 km/h (4 Bft)
15.03.2011 23:39 2,6 C 83 % 1021,5 hPa 0,0 l/m 20,5 km/h (4 Bft) O-SO 105 0 min 0 W/m 0,0 C -6,5 C 20,5 km/h (4 Bft)
15.03.2011 23:44 2,6 C 82 % 1021,5 hPa 0,0 l/m 24,5 km/h (4 Bft) O 100 0 min 0 W/m -0,2 C -8,0 C 24,5 km/h (4 Bft)
15.03.2011 23:49 2,6 C 82 % 1021,5 hPa 0,0 l/m 23,1 km/h (4 Bft) O 100 0 min 0 W/m -0,2 C -7,5 C 23,1 km/h (4 Bft)
15.03.2011 23:54 2,6 C 82 % 1021,5 hPa 0,0 l/m 19,0 km/h (3 Bft) O 85 0 min 0 W/m -0,2 C -5,8 C 19,0 km/h (3 Bft)
15.03.2011 23:59 2,5 C 82 % 1021,5 hPa 0,0 l/m 24,5 km/h (4 Bft) O-SO 115 0 min 0 W/m -0,3 C -8,2 C 24,5 km/h (4 Bft)
_ Min-Zeit 23:59 21:34 00:04 - 04:34 - - - - 23:59 23:24 04:34
Minimum _ 2,5 C 81 % 1019,5 hPa - 1,0 km/h (0 Bft) - - - - -0,3 C -10,4 C 1,0 km/h (0 Bft)
_ Max-Zeit 00:04 00:04 08:24 00:04 21:44 - - 00:04 00:04 00:04 00:29 21:44
Maximum _ 8,3 C 93 % 1021,5 hPa 0,0 l/m 33,1 km/h
O (5 Bft)
- - 0 min 0 W/m 7,2 C 8,2 C 33,1 km/h
O-SO (5 Bft)
Durchschnitt _ 6,0 C 88 % 1020,6 hPa #0,0 l/m 17,6 km/h (3 Bft) O - #0 min. 0 W/m 4,1 C -0,6 C 17,6 km/h (3 Bft)
copyright by Holger Just